Holton, Michigan
Current Conditions -  °F | °C
As of 12:12 AM on Sunday 26 Oct 2014 (Local Time) from KFFX Reporting Station
Clear Clear  
Wind Chill:   Ceiling: Unl
Heat Index: 10°   Visibility: 10mi
Dew Point: -1°   Wind: 7mph
Humidity: 48%   Direction: 290°WNW
Pressure: 29.87"   Gusts: NA
Location:  43.41°N, 86.08°W
Report Text: KFFX 260412Z AUTO 29006KT 10SM CLR 10/M01 A2987 RMK AO2 T00981008
Loading
Personal Weather Stations






























Interactive Weather Map
Tropical Storm Tracking
New forecast layout! Learn more

10-Day Weather Forecast

Advertisements
Track Severe Weather on mobile